Albany, Oklahoma
Current Conditions -  °F | °C
As of 10:55 PM on Monday 22 Dec 2014 (Local Time) from KDUA Reporting Station
Broken Clouds Broken Clouds  
Wind Chill: 10°   Ceiling: 11000
Heat Index: 10°   Visibility: 10mi
Dew Point:   Wind: 6mph
Humidity: 76%   Direction: 330°NNW
Pressure: 29.72"   Gusts: NA
Location:  33.88°N, 96.16°W
Report Text: KDUA 230455Z AUTO 33005KT 10SM BKN110 10/06 A2972 RMK AO2
Loading
Personal Weather Stations






























Interactive Weather Map New forecast layout! Learn more

10-Day Weather Forecast

Advertisements
Track Severe Weather on mobile